Time;durP1;ratioP1;P1;durP2;ratioP2;P2;SDS_P1;SDS_P2;PMS_P1;PMS_P2;Temp;Humidity;BMP_temperature;BMP_pressure;BME280_temperature;BME280_humidity;BME280_pressure;Samples;Min_cycle;Max_cycle;Signal;HPM_P1;HPM_P2
2022/06/04 00:00:15;;;;;;;;;;;;;;;;;;1040791;28;3426;-58
2022/06/04 00:00:52;;;;;;;;;;;;;;;;;;1045605;28;3911;-57
2022/06/04 00:01:23;;;;;;;;;;;;;;;;;;1046968;28;2194;-55
2022/06/04 00:01:53;;;;;;;;;;;;;;;;;;1046296;28;4066;-54
2022/06/04 00:02:23;;;;;;;;;;;;;;;;;;1046388;28;1647;-54
2022/06/04 00:02:54;;;;;;;;;;;;;;;;;;1045568;28;3982;-54
2022/06/04 00:03:26;;;;;;;;;;;;;;;;;;1044821;28;3698;-56
2022/06/04 00:03:56;;;;;;;;;;;;;;;;;;1045600;28;4180;-54
2022/06/04 00:04:26;;;;;;;;;;;;;;;;;;1044649;28;4099;-55
2022/06/04 00:04:59;;;;;;;;;;;;;;;;;;1044647;28;3835;-56
2022/06/04 00:05:32;;;;;;;;;;;;;;;;;;1043860;28;4080;-55
2022/06/04 00:06:02;;;;;;;;;;;;;;;;;;1045459;28;3230;-56
2022/06/04 00:06:34;;;;;;;;;;;;;;;;;;1044155;28;4111;-55
2022/06/04 00:07:04;;;;;;;;;;;;;;;;;;1045660;28;1679;-57
2022/06/04 00:07:34;;;;;;;;;;;;;;;;;;1045508;28;4074;-57
2022/06/04 00:08:05;;;;;;;;;;;;;;;;;;1045380;28;3053;-55
2022/06/04 00:08:36;;;;;;;;;;;;;;;;;;1044936;28;4022;-56
2022/06/04 00:09:07;;;;;;;;;;;;;;;;;;1044648;28;3521;-55
2022/06/04 00:15:28;;;;;;;;;;;;;;;;;;1045222;28;4076;-55
2022/06/04 00:15:29;;;;;;;;;;;;;;;;;;1045954;28;4039;-56
2022/06/04 00:16:00;;;;;;;;;;;;;;;;;;1045218;28;2865;-56
2022/06/04 00:16:30;;;;;;;;;;;;;;;;;;1045456;28;4100;-56
2022/06/04 00:17:01;;;;;;;;;;;;;;;;;;1046466;28;1920;-57
2022/06/04 00:17:31;;;;;;;;;;;;;;;;;;1045323;28;3810;-56
2022/06/04 00:18:01;;;;;;;;;;;;;;;;;;1040693;28;3424;-57
2022/06/04 00:18:45;;;;;;;;;;;;;;;;;;1040985;28;3835;-56
2022/06/04 00:19:23;;;;;;;;;;;;;;;;;;1041166;28;3667;-55
2022/06/04 00:19:53;;;;;;;;;;;;;;;;;;1040659;28;4068;-56
2022/06/04 00:20:23;;;;;;;;;;;;;;;;;;1041883;28;1607;-56
2022/06/04 00:20:54;;;;;;;;;;;;;;;;;;1041329;28;3775;-56
2022/06/04 00:21:25;;;;;;;;;;;;;;;;;;1042365;28;2042;-56
2022/06/04 00:21:55;;;;;;;;;;;;;;;;;;1041662;28;3895;-54
2022/06/04 00:22:25;;;;;;;;;;;;;;;;;;1041586;28;3534;-55
2022/06/04 00:22:56;;;;;;;;;;;;;;;;;;1041218;28;3930;-56
2022/06/04 00:23:26;;;;;;;;;;;;;;;;;;1039930;28;4469;-56
2022/06/04 00:24:03;;;;;;;;;;;;;;;;;;1041092;28;2788;-54
2022/06/04 00:24:34;;;;;;;;;;;;;;;;;;1040867;28;4280;-55
2022/06/04 00:25:07;;;;;;;;;;;;;;;;;;1040291;28;2631;-56
2022/06/04 00:25:39;;;;;;;;;;;;;;;;;;1041381;28;4000;-56
2022/06/04 00:26:10;;;;;;;;;;;;;;;;;;1039624;28;3578;-55
2022/06/04 00:26:41;;;;;;;;;;;;;;;;;;1037447;28;3924;-56
2022/06/04 00:27:16;;;;;;;;;;;;;;;;;;1041454;28;1623;-58
2022/06/04 00:27:46;;;;;;;;;;;;;;;;;;1040499;28;4066;-55
2022/06/04 00:28:18;;;;;;;;;;;;;;;;;;1040274;28;3263;-55
2022/06/04 00:28:48;;;;;;;;;;;;;;;;;;1041505;28;3888;-56
2022/06/04 00:29:19;;;;;;;;;;;;;;;;;;1041981;28;1879;-56
2022/06/04 00:29:49;;;;;;;;;;;;;;;;;;1041673;28;4070;-56
2022/06/04 00:30:20;;;;;;;;;;;;;;;;;;1041209;28;1949;-54
2022/06/04 00:30:51;;;;;;;;;;;;;;;;;;1041390;28;4044;-56
2022/06/04 00:31:22;;;;;;;;;;;;;;;;;;1041674;28;1753;-56
2022/06/04 00:31:52;;;;;;;;;;;;;;;;;;1041488;28;4138;-56
2022/06/04 00:32:22;;;;;;;;;;;;;;;;;;1042281;28;1902;-56
2022/06/04 00:32:53;;;;;;;;;;;;;;;;;;1039261;28;3879;-56
2022/06/04 00:33:23;;;;;;;;;;;;;;;;;;1041635;28;3653;-56
2022/06/04 00:33:53;;;;;;;;;;;;;;;;;;1040995;28;4090;-56
2022/06/04 00:34:24;;;;;;;;;;;;;;;;;;1041515;28;2029;-55
2022/06/04 00:34:54;;;;;;;;;;;;;;;;;;1039569;28;3982;-56
2022/06/04 00:35:25;;;;;;;;;;;;;;;;;;1041980;28;2648;-54
2022/06/04 00:35:57;;;;;;;;;;;;;;;;;;1041607;28;3874;-56
2022/06/04 00:36:27;;;;;;;;;;;;;;;;;;1040331;28;3949;-55
2022/06/04 00:36:58;;;;;;;;;;;;;;;;;;1041938;28;1673;-56
2022/06/04 00:37:32;;;;;;;;;;;;;;;;;;1042308;28;3906;-56
2022/06/04 00:38:03;;;;;;;;;;;;;;;;;;1039483;28;3720;-56
2022/06/04 00:38:34;;;;;;;;;;;;;;;;;;1039944;28;4094;-56
2022/06/04 00:39:04;;;;;;;;;;;;;;;;;;1040733;28;2981;-56
2022/06/04 00:39:34;;;;;;;;;;;;;;;;;;1041459;28;4064;-56
2022/06/04 00:40:06;;;;;;;;;;;;;;;;;;1041744;28;2276;-54
2022/06/04 00:40:42;;;;;;;;;;;;;;;;;;1040967;28;4162;-55
2022/06/04 00:41:15;;;;;;;;;;;;;;;;;;1039728;28;3777;-57
2022/06/04 00:41:45;;;;;;;;;;;;;;;;;;1040763;28;3882;-56
2022/06/04 00:42:18;;;;;;;;;;;;;;;;;;1040184;28;3733;-57
2022/06/04 00:42:48;;;;;;;;;;;;;;;;;;1040994;28;4035;-57
2022/06/04 00:43:19;;;;;;;;;;;;;;;;;;1040700;28;3525;-58
2022/06/04 00:44:03;;;;;;;;;;;;;;;;;;1041450;28;4063;-57
2022/06/04 00:44:33;;;;;;;;;;;;;;;;;;1041020;28;3893;-56
2022/06/04 00:45:21;;;;;;;;;;;;;;;;;;1041505;28;3291;-55
2022/06/04 00:46:10;;;;;;;;;;;;;;;;;;1041398;28;4086;-56
2022/06/04 00:46:41;;;;;;;;;;;;;;;;;;1040519;28;3924;-54
2022/06/04 00:47:13;;;;;;;;;;;;;;;;;;1038842;28;3859;-56
2022/06/04 00:47:43;;;;;;;;;;;;;;;;;;1041148;28;4063;-56
2022/06/04 00:48:14;;;;;;;;;;;;;;;;;;1040471;28;2849;-55
2022/06/04 00:48:44;;;;;;;;;;;;;;;;;;1044757;28;3880;-56
2022/06/04 00:49:16;;;;;;;;;;;;;;;;;;1044888;28;2942;-55
2022/06/04 00:49:47;;;;;;;;;;;;;;;;;;1044183;28;4060;-56
2022/06/04 00:50:18;;;;;;;;;;;;;;;;;;1044181;28;2576;-54
2022/06/04 00:50:48;;;;;;;;;;;;;;;;;;1043405;28;4285;-56
2022/06/04 00:51:20;;;;;;;;;;;;;;;;;;1045973;28;2688;-55
2022/06/04 00:51:50;;;;;;;;;;;;;;;;;;1040560;28;3925;-55
2022/06/04 00:52:21;;;;;;;;;;;;;;;;;;1041597;28;2593;-54
2022/06/04 00:52:52;;;;;;;;;;;;;;;;;;1040450;28;4055;-55
2022/06/04 00:53:23;;;;;;;;;;;;;;;;;;1040721;28;3501;-57
2022/06/04 00:53:54;;;;;;;;;;;;;;;;;;1040454;28;4046;-56
2022/06/04 00:54:24;;;;;;;;;;;;;;;;;;1042230;28;2102;-56
2022/06/04 00:55:02;;;;;;;;;;;;;;;;;;1042001;28;4094;-55
2022/06/04 00:55:49;;;;;;;;;;;;;;;;;;1041127;28;3882;-56
2022/06/04 00:56:30;;;;;;;;;;;;;;;;;;1041416;28;2092;-54
2022/06/04 00:57:16;;;;;;;;;;;;;;;;;;1041719;28;4250;-56
2022/06/04 00:58:03;;;;;;;;;;;;;;;;;;1038477;28;3915;-56
2022/06/04 00:58:39;;;;;;;;;;;;;;;;;;1044062;28;3980;-55
2022/06/04 00:59:28;;;;;;;;;;;;;;;;;;1044683;28;3058;-56
2022/06/04 01:00:04;;;;;;;;;;;;;;;;;;1043905;28;3746;-54
2022/06/04 01:00:40;;;;;;;;;;;;;;;;;;1041326;28;3865;-56
2022/06/04 01:01:17;;;;;;;;;;;;;;;;;;1045465;28;1678;-57
2022/06/04 01:01:57;;;;;;;;;;;;;;;;;;1044225;28;4049;-57
2022/06/04 01:02:46;;;;;;;;;;;;;;;;;;1042769;28;3819;-57
2022/06/04 01:03:16;;;;;;;;;;;;;;;;;;1041423;28;3253;-55
2022/06/04 01:03:58;;;;;;;;;;;;;;;;;;1040653;28;4456;-58
2022/06/04 01:04:48;;;;;;;;;;;;;;;;;;1040494;28;4048;-57
2022/06/04 01:05:27;;;;;;;;;;;;;;;;;;1042713;28;1491;-56
2022/06/04 01:06:00;;;;;;;;;;;;;;;;;;1040508;28;3872;-57
2022/06/04 01:06:31;;;;;;;;;;;;;;;;;;1041185;28;4069;-56
2022/06/04 01:07:06;;;;;;;;;;;;;;;;;;1041984;28;1680;-55
2022/06/04 01:07:43;;;;;;;;;;;;;;;;;;1041758;28;4174;-56
2022/06/04 01:08:25;;;;;;;;;;;;;;;;;;1040406;28;3901;-55
2022/06/04 01:09:10;;;;;;;;;;;;;;;;;;1042559;28;3888;-56
2022/06/04 01:09:52;;;;;;;;;;;;;;;;;;1040413;28;3882;-57
2022/06/04 01:10:28;;;;;;;;;;;;;;;;;;1040759;28;3469;-56
2022/06/04 01:11:18;;;;;;;;;;;;;;;;;;1041000;28;3859;-55
2022/06/04 01:12:49;;;;;;;;;;;;;;;;;;1041558;28;4016;-56
2022/06/04 01:13:26;;;;;;;;;;;;;;;;;;1038946;28;3708;-55
2022/06/04 01:14:11;;;;;;;;;;;;;;;;;;1040678;28;3687;-56
2022/06/04 01:14:57;;;;;;;;;;;;;;;;;;1040683;28;3963;-55
2022/06/04 01:15:46;;;;;;;;;;;;;;;;;;1039523;28;4035;-57
2022/06/04 01:16:22;;;;;;;;;;;;;;;;;;1040831;28;3739;-57
2022/06/04 01:16:59;;;;;;;;;;;;;;;;;;1041462;28;4047;-56
2022/06/04 01:17:48;;;;;;;;;;;;;;;;;;1039787;28;4105;-55
2022/06/04 01:18:29;;;;;;;;;;;;;;;;;;1041387;28;2329;-57
2022/06/04 01:19:13;;;;;;;;;;;;;;;;;;1039492;28;3737;-55
2022/06/04 01:20:03;;;;;;;;;;;;;;;;;;1038863;28;4069;-55
2022/06/04 01:20:37;;;;;;;;;;;;;;;;;;1039117;28;3916;-56
2022/06/04 01:21:13;;;;;;;;;;;;;;;;;;1038863;28;3763;-56
2022/06/04 01:22:02;;;;;;;;;;;;;;;;;;1041021;28;3871;-56
2022/06/04 01:23:02;;;;;;;;;;;;;;;;;;1040910;28;4040;-57
2022/06/04 01:23:53;;;;;;;;;;;;;;;;;;1032485;28;4088;-57
2022/06/04 01:24:34;;;;;;;;;;;;;;;;;;1025105;28;2333;-56
2022/06/04 01:25:07;;;;;;;;;;;;;;;;;;1032520;28;4039;-53
2022/06/04 01:25:56;;;;;;;;;;;;;;;;;;1041982;28;3912;-56
2022/06/04 01:26:41;;;;;;;;;;;;;;;;;;1043810;28;4070;-55
2022/06/04 01:27:16;;;;;;;;;;;;;;;;;;1041483;28;4251;-54
2022/06/04 01:27:58;;;;;;;;;;;;;;;;;;1038248;28;3878;-56
2022/06/04 01:28:30;;;;;;;;;;;;;;;;;;1039349;28;4084;-55
2022/06/04 01:29:03;;;;;;;;;;;;;;;;;;1041318;28;2972;-56
2022/06/04 01:29:35;;;;;;;;;;;;;;;;;;1040755;28;4131;-55
2022/06/04 01:30:13;;;;;;;;;;;;;;;;;;1041298;28;1906;-56
2022/06/04 01:30:51;;;;;;;;;;;;;;;;;;1040829;28;4117;-57
2022/06/04 01:31:23;;;;;;;;;;;;;;;;;;1044353;28;2903;-56
2022/06/04 01:32:05;;;;;;;;;;;;;;;;;;1044611;28;4181;-54
2022/06/04 01:32:40;;;;;;;;;;;;;;;;;;1041975;28;3905;-56
2022/06/04 01:33:13;;;;;;;;;;;;;;;;;;1041044;28;3544;-57
2022/06/04 01:33:50;;;;;;;;;;;;;;;;;;1041605;28;4106;-56
2022/06/04 01:34:24;;;;;;;;;;;;;;;;;;1042725;28;3349;-55
2022/06/04 01:35:13;;;;;;;;;;;;;;;;;;1041409;28;3839;-56
2022/06/04 01:35:50;;;;;;;;;;;;;;;;;;1041092;28;3902;-55
2022/06/04 01:36:26;;;;;;;;;;;;;;;;;;1040067;28;3417;-56
2022/06/04 01:36:59;;;;;;;;;;;;;;;;;;1040995;28;4000;-56
2022/06/04 01:37:32;;;;;;;;;;;;;;;;;;1041035;28;4122;-56
2022/06/04 01:38:11;;;;;;;;;;;;;;;;;;1041900;28;2474;-55
2022/06/04 01:38:46;;;;;;;;;;;;;;;;;;1038763;28;3901;-55
2022/06/04 01:39:22;;;;;;;;;;;;;;;;;;1041796;28;2119;-55
2022/06/04 01:41:03;;;;;;;;;;;;;;;;;;1040210;28;4341;-56
2022/06/04 01:41:38;;;;;;;;;;;;;;;;;;1040876;28;4057;-54
2022/06/04 01:42:09;;;;;;;;;;;;;;;;;;1041013;28;2274;-55
2022/06/04 01:42:43;;;;;;;;;;;;;;;;;;1040134;28;3878;-55
2022/06/04 01:43:15;;;;;;;;;;;;;;;;;;1040278;28;3886;-57
2022/06/04 01:43:53;;;;;;;;;;;;;;;;;;1040268;28;3845;-55
2022/06/04 01:44:25;;;;;;;;;;;;;;;;;;1041355;28;2895;-55
2022/06/04 01:44:57;;;;;;;;;;;;;;;;;;1040839;28;3988;-56
2022/06/04 01:45:28;;;;;;;;;;;;;;;;;;1040387;28;3932;-56
2022/06/04 01:46:03;;;;;;;;;;;;;;;;;;1039452;28;2986;-57
2022/06/04 01:46:48;;;;;;;;;;;;;;;;;;1040443;28;4221;-55
2022/06/04 01:47:19;;;;;;;;;;;;;;;;;;1038956;28;3586;-57
2022/06/04 01:47:51;;;;;;;;;;;;;;;;;;1040928;28;3995;-56
2022/06/04 01:48:21;;;;;;;;;;;;;;;;;;1040144;28;2828;-55
2022/06/04 01:48:54;;;;;;;;;;;;;;;;;;1041478;28;4351;-56
2022/06/04 01:49:27;;;;;;;;;;;;;;;;;;1045417;28;2946;-56
2022/06/04 01:49:59;;;;;;;;;;;;;;;;;;1044339;28;3991;-57
2022/06/04 01:50:32;;;;;;;;;;;;;;;;;;1041374;28;4061;-55
2022/06/04 01:51:05;;;;;;;;;;;;;;;;;;1038632;28;1425;-56
2022/06/04 01:51:36;;;;;;;;;;;;;;;;;;1036486;28;3929;-54
2022/06/04 01:52:15;;;;;;;;;;;;;;;;;;1038087;28;3104;-55
2022/06/04 01:52:46;;;;;;;;;;;;;;;;;;1040669;28;4047;-56
2022/06/04 01:53:18;;;;;;;;;;;;;;;;;;1042227;28;3899;-58
2022/06/04 01:53:50;;;;;;;;;;;;;;;;;;1040302;28;3993;-56
2022/06/04 01:54:27;;;;;;;;;;;;;;;;;;1040409;28;3614;-56
2022/06/04 01:55:10;;;;;;;;;;;;;;;;;;1040549;28;3777;-55
2022/06/04 01:55:44;;;;;;;;;;;;;;;;;;1041322;28;4071;-56
2022/06/04 01:56:20;;;;;;;;;;;;;;;;;;1039964;28;3672;-54
2022/06/04 01:56:54;;;;;;;;;;;;;;;;;;1041682;28;4065;-56
2022/06/04 01:57:29;;;;;;;;;;;;;;;;;;1045380;28;1786;-56
2022/06/04 01:58:05;;;;;;;;;;;;;;;;;;1042694;28;3707;-56
2022/06/04 01:58:39;;;;;;;;;;;;;;;;;;1045752;28;5243;-57
2022/06/04 01:59:15;;;;;;;;;;;;;;;;;;1043892;28;1280;-56
2022/06/04 01:59:51;;;;;;;;;;;;;;;;;;1041100;28;4127;-56
2022/06/04 02:00:31;;;;;;;;;;;;;;;;;;1042381;28;3812;-55
2022/06/04 02:01:05;;;;;;;;;;;;;;;;;;1040672;28;3903;-56
2022/06/04 02:01:35;;;;;;;;;;;;;;;;;;1041423;28;3952;-55
2022/06/04 02:02:09;;;;;;;;;;;;;;;;;;1037922;28;3744;-56
2022/06/04 02:02:43;;;;;;;;;;;;;;;;;;1041137;28;4068;-55
2022/06/04 02:03:19;;;;;;;;;;;;;;;;;;1040999;28;1987;-56
2022/06/04 02:03:52;;;;;;;;;;;;;;;;;;1041761;28;4059;-57
2022/06/04 02:04:25;;;;;;;;;;;;;;;;;;1041340;28;3755;-57
2022/06/04 02:04:59;;;;;;;;;;;;;;;;;;1046174;28;3765;-55
2022/06/04 02:05:37;;;;;;;;;;;;;;;;;;1044329;28;4138;-56
2022/06/04 02:06:12;;;;;;;;;;;;;;;;;;1045888;28;1581;-55
2022/06/04 02:06:45;;;;;;;;;;;;;;;;;;1041902;28;4127;-56
2022/06/04 02:07:32;;;;;;;;;;;;;;;;;;1041128;28;3784;-57
2022/06/04 02:08:04;;;;;;;;;;;;;;;;;;1041121;28;3978;-55
2022/06/04 02:08:38;;;;;;;;;;;;;;;;;;1041047;28;3866;-55
2022/06/04 02:09:11;;;;;;;;;;;;;;;;;;1041944;28;1693;-56
2022/06/04 02:09:43;;;;;;;;;;;;;;;;;;1041769;28;4092;-54
2022/06/04 02:10:18;;;;;;;;;;;;;;;;;;1040931;28;2233;-56
2022/06/04 02:10:51;;;;;;;;;;;;;;;;;;1041574;28;3954;-56
2022/06/04 02:11:22;;;;;;;;;;;;;;;;;;1040727;28;3067;-56
2022/06/04 02:11:55;;;;;;;;;;;;;;;;;;1039607;28;4044;-57
2022/06/04 02:12:25;;;;;;;;;;;;;;;;;;1039762;28;3744;-56
2022/06/04 02:12:57;;;;;;;;;;;;;;;;;;1038823;28;3815;-55
2022/06/04 02:13:28;;;;;;;;;;;;;;;;;;1038995;28;4292;-56
2022/06/04 02:14:01;;;;;;;;;;;;;;;;;;1039555;28;3043;-54
2022/06/04 02:14:32;;;;;;;;;;;;;;;;;;1041588;28;4470;-57
2022/06/04 02:15:05;;;;;;;;;;;;;;;;;;1039732;28;3592;-56
2022/06/04 02:15:38;;;;;;;;;;;;;;;;;;1041807;28;3982;-56
2022/06/04 02:16:12;;;;;;;;;;;;;;;;;;1041200;28;3756;-56
2022/06/04 02:16:54;;;;;;;;;;;;;;;;;;1039322;28;4233;-56
2022/06/04 02:17:24;;;;;;;;;;;;;;;;;;1034982;28;3568;-56
2022/06/04 02:17:57;;;;;;;;;;;;;;;;;;1035748;28;3827;-56
2022/06/04 02:18:28;;;;;;;;;;;;;;;;;;1038051;28;4151;-56
2022/06/04 02:19:12;;;;;;;;;;;;;;;;;;1040800;28;3847;-55
2022/06/04 02:19:49;;;;;;;;;;;;;;;;;;1040476;28;3862;-56
2022/06/04 02:20:19;;;;;;;;;;;;;;;;;;1040689;28;2761;-57
2022/06/04 02:20:50;;;;;;;;;;;;;;;;;;1040878;28;3771;-56
2022/06/04 02:21:20;;;;;;;;;;;;;;;;;;1041299;28;1712;-56
2022/06/04 02:21:51;;;;;;;;;;;;;;;;;;1041983;28;4074;-56
2022/06/04 02:22:21;;;;;;;;;;;;;;;;;;1038616;28;2914;-55
2022/06/04 02:22:53;;;;;;;;;;;;;;;;;;1040958;28;3749;-55
2022/06/04 02:23:24;;;;;;;;;;;;;;;;;;1040084;28;2536;-55
2022/06/04 02:23:55;;;;;;;;;;;;;;;;;;1041726;28;3823;-56
2022/06/04 02:24:26;;;;;;;;;;;;;;;;;;1040091;28;3754;-53
2022/06/04 02:24:58;;;;;;;;;;;;;;;;;;1041238;28;3784;-56
2022/06/04 02:25:29;;;;;;;;;;;;;;;;;;1040927;28;4244;-54
2022/06/04 02:26:00;;;;;;;;;;;;;;;;;;1041283;28;1778;-55
2022/06/04 02:26:30;;;;;;;;;;;;;;;;;;1040124;28;3993;-54
2022/06/04 02:27:01;;;;;;;;;;;;;;;;;;1040170;28;3026;-56
2022/06/04 02:27:31;;;;;;;;;;;;;;;;;;1039576;28;4153;-57
2022/06/04 02:28:02;;;;;;;;;;;;;;;;;;1041899;28;2161;-56
2022/06/04 02:28:32;;;;;;;;;;;;;;;;;;1040028;28;4103;-55
2022/06/04 02:29:03;;;;;;;;;;;;;;;;;;1042654;28;1757;-56
2022/06/04 02:29:34;;;;;;;;;;;;;;;;;;1041253;28;4090;-56
2022/06/04 02:30:04;;;;;;;;;;;;;;;;;;1040142;28;2700;-56
2022/06/04 02:30:50;;;;;;;;;;;;;;;;;;1040208;28;4125;-55
2022/06/04 02:31:41;;;;;;;;;;;;;;;;;;1040955;28;3758;-56
2022/06/04 02:32:20;;;;;;;;;;;;;;;;;;1023225;28;4009;-55
2022/06/04 02:32:56;;;;;;;;;;;;;;;;;;1041446;28;4058;-56
2022/06/04 02:33:50;;;;;;;;;;;;;;;;;;1039272;28;3805;-56
2022/06/04 02:34:33;;;;;;;;;;;;;;;;;;1041564;28;2859;-57
2022/06/04 02:35:07;;;;;;;;;;;;;;;;;;1041579;28;3813;-56
2022/06/04 02:35:44;;;;;;;;;;;;;;;;;;1040102;28;4164;-55
2022/06/04 02:36:24;;;;;;;;;;;;;;;;;;1040835;28;3559;-54
2022/06/04 02:36:59;;;;;;;;;;;;;;;;;;1040068;28;4004;-56
2022/06/04 02:37:43;;;;;;;;;;;;;;;;;;1039351;28;4265;-56
2022/06/04 02:38:25;;;;;;;;;;;;;;;;;;1041529;28;2915;-55
2022/06/04 02:39:15;;;;;;;;;;;;;;;;;;1040120;28;3974;-57
2022/06/04 02:40:18;;;;;;;;;;;;;;;;;;1024715;28;4061;-55
2022/06/04 02:40:51;;;;;;;;;;;;;;;;;;1024956;28;4094;-56
2022/06/04 02:41:24;;;;;;;;;;;;;;;;;;1032055;28;2781;-56
2022/06/04 02:42:11;;;;;;;;;;;;;;;;;;1041892;28;3867;-56
2022/06/04 02:42:54;;;;;;;;;;;;;;;;;;1041093;28;4053;-56
2022/06/04 02:43:57;;;;;;;;;;;;;;;;;;1040526;28;2903;-57
2022/06/04 02:44:28;;;;;;;;;;;;;;;;;;1019573;28;4070;-55
2022/06/04 02:45:06;;;;;;;;;;;;;;;;;;1015539;29;2984;-56
2022/06/04 02:45:40;;;;;;;;;;;;;;;;;;1027757;28;4084;-56
2022/06/04 02:46:20;;;;;;;;;;;;;;;;;;1037976;28;3528;-55
2022/06/04 02:46:55;;;;;;;;;;;;;;;;;;1040757;28;4106;-57
2022/06/04 02:47:36;;;;;;;;;;;;;;;;;;1037614;28;2890;-57
2022/06/04 02:48:12;;;;;;;;;;;;;;;;;;1040620;28;3671;-56
2022/06/04 02:48:59;;;;;;;;;;;;;;;;;;1041493;28;3895;-56
2022/06/04 02:49:40;;;;;;;;;;;;;;;;;;1040735;28;4156;-57
2022/06/04 02:50:14;;;;;;;;;;;;;;;;;;1040373;28;3024;-56
2022/06/04 02:50:51;;;;;;;;;;;;;;;;;;1040505;28;4073;-54
2022/06/04 02:51:25;;;;;;;;;;;;;;;;;;1041164;28;2985;-55
2022/06/04 02:51:57;;;;;;;;;;;;;;;;;;1044271;28;4160;-56
2022/06/04 02:52:27;;;;;;;;;;;;;;;;;;1042600;28;3918;-56
2022/06/04 02:52:59;;;;;;;;;;;;;;;;;;1045951;28;2332;-56
2022/06/04 02:53:31;;;;;;;;;;;;;;;;;;1040188;28;3951;-55
2022/06/04 02:54:04;;;;;;;;;;;;;;;;;;1037983;28;1593;-55
2022/06/04 02:54:37;;;;;;;;;;;;;;;;;;1033000;28;3913;-55
2022/06/04 02:55:23;;;;;;;;;;;;;;;;;;1032743;28;3797;-55
2022/06/04 02:55:57;;;;;;;;;;;;;;;;;;1038397;28;3936;-56
2022/06/04 02:56:30;;;;;;;;;;;;;;;;;;1041461;28;4446;-57
2022/06/04 02:57:02;;;;;;;;;;;;;;;;;;1041690;28;1732;-56
2022/06/04 02:57:33;;;;;;;;;;;;;;;;;;1040690;28;5337;-56
2022/06/04 02:58:09;;;;;;;;;;;;;;;;;;1040371;28;3756;-56
2022/06/04 02:58:41;;;;;;;;;;;;;;;;;;1040626;28;4115;-57
2022/06/04 02:59:13;;;;;;;;;;;;;;;;;;1041944;28;1173;-56
2022/06/04 02:59:44;;;;;;;;;;;;;;;;;;1040949;28;3916;-54
2022/06/04 03:00:17;;;;;;;;;;;;;;;;;;1039952;28;3589;-57
2022/06/04 03:00:49;;;;;;;;;;;;;;;;;;1039755;28;3882;-56
2022/06/04 03:01:20;;;;;;;;;;;;;;;;;;1041335;28;2790;-56
2022/06/04 03:01:52;;;;;;;;;;;;;;;;;;1039400;28;4152;-56
2022/06/04 03:02:24;;;;;;;;;;;;;;;;;;1041023;28;1852;-54
2022/06/04 03:02:54;;;;;;;;;;;;;;;;;;1039591;28;3949;-54
2022/06/04 03:03:25;;;;;;;;;;;;;;;;;;1041571;28;3318;-56
2022/06/04 03:03:55;;;;;;;;;;;;;;;;;;1041305;28;3814;-55
2022/06/04 03:04:26;;;;;;;;;;;;;;;;;;1040550;28;2387;-56
2022/06/04 03:04:56;;;;;;;;;;;;;;;;;;1041509;28;3652;-54
2022/06/04 03:05:27;;;;;;;;;;;;;;;;;;1041585;28;3986;-57
2022/06/04 03:05:58;;;;;;;;;;;;;;;;;;1040928;28;3119;-56
2022/06/04 03:06:33;;;;;;;;;;;;;;;;;;1041939;28;4123;-54
2022/06/04 03:07:04;;;;;;;;;;;;;;;;;;1040306;28;2291;-57
2022/06/04 03:07:37;;;;;;;;;;;;;;;;;;1041058;28;4112;-57
2022/06/04 03:08:08;;;;;;;;;;;;;;;;;;1039650;28;5224;-55
2022/06/04 03:08:38;;;;;;;;;;;;;;;;;;1041155;28;3896;-56
2022/06/04 03:09:10;;;;;;;;;;;;;;;;;;1036608;28;3069;-56
2022/06/04 03:09:40;;;;;;;;;;;;;;;;;;1037254;28;4220;-56
2022/06/04 03:10:15;;;;;;;;;;;;;;;;;;1036146;28;3026;-56
2022/06/04 03:10:46;;;;;;;;;;;;;;;;;;1037983;28;4007;-54
2022/06/04 03:11:16;;;;;;;;;;;;;;;;;;1041277;28;2784;-56
2022/06/04 03:11:48;;;;;;;;;;;;;;;;;;1040200;28;4082;-55
2022/06/04 03:12:18;;;;;;;;;;;;;;;;;;1038938;28;3986;-55
2022/06/04 03:12:49;;;;;;;;;;;;;;;;;;1041186;28;4071;-55
2022/06/04 03:13:20;;;;;;;;;;;;;;;;;;1041076;28;2635;-54
2022/06/04 03:13:50;;;;;;;;;;;;;;;;;;1040484;28;3993;-58
2022/06/04 03:14:21;;;;;;;;;;;;;;;;;;1037709;28;1802;-56
2022/06/04 03:14:57;;;;;;;;;;;;;;;;;;1036206;28;4033;-56
2022/06/04 03:15:27;;;;;;;;;;;;;;;;;;1036909;28;4193;-55
2022/06/04 03:15:58;;;;;;;;;;;;;;;;;;1040510;28;3912;-57
2022/06/04 03:16:36;;;;;;;;;;;;;;;;;;1042115;28;3901;-56
2022/06/04 03:17:08;;;;;;;;;;;;;;;;;;1041980;28;2230;-57
2022/06/04 03:17:39;;;;;;;;;;;;;;;;;;1035652;28;3933;-55
2022/06/04 03:18:10;;;;;;;;;;;;;;;;;;1037653;28;3802;-54
2022/06/04 03:18:54;;;;;;;;;;;;;;;;;;1039977;28;3896;-55
2022/06/04 03:19:31;;;;;;;;;;;;;;;;;;1037338;28;4043;-55
2022/06/04 03:20:01;;;;;;;;;;;;;;;;;;1035799;28;4374;-57
2022/06/04 03:20:32;;;;;;;;;;;;;;;;;;1037445;28;3788;-57
2022/06/04 03:21:03;;;;;;;;;;;;;;;;;;1037246;28;2748;-54
2022/06/04 03:21:34;;;;;;;;;;;;;;;;;;1036010;28;4405;-56
2022/06/04 03:22:05;;;;;;;;;;;;;;;;;;1037619;28;3409;-57
2022/06/04 03:22:35;;;;;;;;;;;;;;;;;;1036555;28;3861;-55
2022/06/04 03:23:06;;;;;;;;;;;;;;;;;;1037719;28;2018;-56
2022/06/04 03:23:37;;;;;;;;;;;;;;;;;;1035184;28;3971;-57
2022/06/04 03:24:08;;;;;;;;;;;;;;;;;;1037521;28;3813;-55
2022/06/04 03:24:38;;;;;;;;;;;;;;;;;;1036212;28;4259;-55
2022/06/04 03:25:09;;;;;;;;;;;;;;;;;;1038370;28;1650;-56
2022/06/04 03:25:39;;;;;;;;;;;;;;;;;;1037598;28;4056;-58
2022/06/04 03:26:10;;;;;;;;;;;;;;;;;;1037887;28;2193;-54
2022/06/04 03:26:40;;;;;;;;;;;;;;;;;;1038166;28;3922;-57
2022/06/04 03:27:10;;;;;;;;;;;;;;;;;;1037722;28;2715;-54
2022/06/04 03:27:41;;;;;;;;;;;;;;;;;;1035849;28;3987;-57
2022/06/04 03:28:11;;;;;;;;;;;;;;;;;;1037982;28;1589;-55
2022/06/04 03:28:41;;;;;;;;;;;;;;;;;;1038340;28;3866;-54
2022/06/04 03:29:12;;;;;;;;;;;;;;;;;;1036537;28;2890;-56
2022/06/04 03:29:42;;;;;;;;;;;;;;;;;;1037318;28;4076;-56
2022/06/04 03:30:13;;;;;;;;;;;;;;;;;;1037205;28;3834;-57
2022/06/04 03:30:43;;;;;;;;;;;;;;;;;;1036266;28;4051;-54
2022/06/04 03:31:13;;;;;;;;;;;;;;;;;;1038109;28;1727;-55
2022/06/04 03:31:44;;;;;;;;;;;;;;;;;;1036313;28;4090;-56
2022/06/04 03:32:14;;;;;;;;;;;;;;;;;;1037600;28;3719;-54
2022/06/04 03:32:45;;;;;;;;;;;;;;;;;;1037800;28;4041;-54
2022/06/04 03:33:15;;;;;;;;;;;;;;;;;;1036919;28;2907;-56
2022/06/04 03:33:46;;;;;;;;;;;;;;;;;;1035593;28;4121;-58
2022/06/04 03:34:16;;;;;;;;;;;;;;;;;;1036899;28;2939;-57
2022/06/04 03:34:46;;;;;;;;;;;;;;;;;;1039979;28;4032;-55
2022/06/04 03:35:17;;;;;;;;;;;;;;;;;;1041877;28;2977;-55
2022/06/04 03:35:47;;;;;;;;;;;;;;;;;;1037099;28;4037;-56
2022/06/04 03:36:17;;;;;;;;;;;;;;;;;;1036965;28;1959;-56
2022/06/04 03:36:48;;;;;;;;;;;;;;;;;;1037399;28;3867;-57
2022/06/04 03:37:18;;;;;;;;;;;;;;;;;;1036839;28;3608;-58
2022/06/04 03:37:48;;;;;;;;;;;;;;;;;;1037738;28;4903;-56
2022/06/04 03:38:19;;;;;;;;;;;;;;;;;;1035784;28;2809;-55
2022/06/04 03:38:49;;;;;;;;;;;;;;;;;;1036887;28;3844;-56
2022/06/04 03:39:19;;;;;;;;;;;;;;;;;;1037686;28;2846;-56
2022/06/04 03:39:50;;;;;;;;;;;;;;;;;;1038374;28;3871;-56
2022/06/04 03:40:20;;;;;;;;;;;;;;;;;;1037292;28;3074;-56
2022/06/04 03:40:50;;;;;;;;;;;;;;;;;;1037541;28;3803;-56
2022/06/04 03:41:21;;;;;;;;;;;;;;;;;;1036862;28;1937;-56
2022/06/04 03:41:51;;;;;;;;;;;;;;;;;;1036298;28;3987;-56
2022/06/04 03:42:21;;;;;;;;;;;;;;;;;;1036186;28;2193;-57
2022/06/04 03:42:52;;;;;;;;;;;;;;;;;;1037626;28;4024;-55
2022/06/04 03:43:22;;;;;;;;;;;;;;;;;;1037380;28;1906;-56
2022/06/04 03:43:52;;;;;;;;;;;;;;;;;;1036420;28;3914;-56
2022/06/04 03:44:22;;;;;;;;;;;;;;;;;;1037002;28;3794;-55
2022/06/04 03:44:53;;;;;;;;;;;;;;;;;;1037508;28;3965;-56
2022/06/04 03:45:26;;;;;;;;;;;;;;;;;;1037243;28;1910;-55
2022/06/04 03:45:56;;;;;;;;;;;;;;;;;;1037266;28;3725;-55
2022/06/04 03:46:27;;;;;;;;;;;;;;;;;;1034804;28;3997;-55
2022/06/04 03:46:58;;;;;;;;;;;;;;;;;;1037764;28;3838;-56
2022/06/04 03:47:28;;;;;;;;;;;;;;;;;;1037654;28;4399;-57
2022/06/04 03:47:58;;;;;;;;;;;;;;;;;;1038163;28;3634;-56
2022/06/04 03:48:28;;;;;;;;;;;;;;;;;;1037197;28;3782;-57
2022/06/04 03:48:59;;;;;;;;;;;;;;;;;;1038020;28;3771;-56
2022/06/04 03:49:29;;;;;;;;;;;;;;;;;;1037090;28;3905;-55
2022/06/04 03:49:59;;;;;;;;;;;;;;;;;;1037776;28;1417;-56
2022/06/04 03:50:30;;;;;;;;;;;;;;;;;;1036048;28;3944;-55
2022/06/04 03:51:00;;;;;;;;;;;;;;;;;;1037252;28;3893;-56
2022/06/04 03:51:30;;;;;;;;;;;;;;;;;;1036367;28;3898;-57
2022/06/04 03:52:01;;;;;;;;;;;;;;;;;;1035499;28;3723;-54
2022/06/04 03:52:31;;;;;;;;;;;;;;;;;;1036610;28;4198;-57
2022/06/04 03:53:01;;;;;;;;;;;;;;;;;;1036059;28;3698;-55
2022/06/04 03:53:32;;;;;;;;;;;;;;;;;;1036989;28;4011;-57
2022/06/04 03:54:02;;;;;;;;;;;;;;;;;;1037448;28;2765;-56
2022/06/04 03:55:21;;;;;;;;;;;;;;;;;;1037159;28;2150;-57
2022/06/04 03:55:51;;;;;;;;;;;;;;;;;;1038087;28;4045;-55
2022/06/04 03:56:22;;;;;;;;;;;;;;;;;;1037776;28;1575;-57
2022/06/04 03:57:37;;;;;;;;;;;;;;;;;;1037455;28;4124;-56
2022/06/04 03:57:45;;;;;;;;;;;;;;;;;;1036980;28;3951;-55
2022/06/04 03:58:15;;;;;;;;;;;;;;;;;;1038198;28;2967;-55
2022/06/04 03:58:45;;;;;;;;;;;;;;;;;;1037732;28;4023;-56
2022/06/04 03:59:16;;;;;;;;;;;;;;;;;;1037742;28;1627;-57
2022/06/04 03:59:49;;;;;;;;;;;;;;;;;;1035888;28;4047;-57
2022/06/04 04:00:21;;;;;;;;;;;;;;;;;;1037947;28;2956;-56
2022/06/04 04:00:52;;;;;;;;;;;;;;;;;;1036903;28;3838;-55
2022/06/04 04:01:23;;;;;;;;;;;;;;;;;;1037911;28;2808;-57
2022/06/04 04:01:54;;;;;;;;;;;;;;;;;;1036459;28;3947;-56
2022/06/04 04:02:24;;;;;;;;;;;;;;;;;;1037141;28;3846;-55
2022/06/04 04:03:03;;;;;;;;;;;;;;;;;;1037078;28;3702;-58
2022/06/04 04:03:34;;;;;;;;;;;;;;;;;;1036794;28;4083;-56
2022/06/04 04:04:04;;;;;;;;;;;;;;;;;;1037634;28;2693;-55
2022/06/04 04:04:34;;;;;;;;;;;;;;;;;;1036885;28;4066;-56